FNLU/LAD METAR and TAF weather

Enter ICAO airport designator
Station Type Date Time Source
FNLU METAR 2022/06/25 23:00 UTC NOAA

FNLU 252300Z 17005KT 9999 BKN020 22/18 Q1013 NOSIG


Station Type Date Time Source
FNLU Decoded METAR 2022/06/25 23:00 UTC NOAA

Luanda, Angola (FNLU) 08-51S 013-14E 70M
Jun 25, 2022 - 07:00 PM EDT / 2022.06.25 2300 UTC
Wind: from the S (170 degrees) at 6 MPH (5 KT):0
Visibility: greater than 7 mile(s):0
Sky conditions: mostly cloudy
Temperature: 71 F (22 C)
Dew Point: 64 F (18 C)
Relative Humidity: 78%
Pressure (altimeter): 29.91 in. Hg (1013 hPa)
ob: FNLU 252300Z 17005KT 9999 BKN020 22/18 Q1013 NOSIG
cycle: 23

Station Type Date Time Source
FNLU TAF 2022/06/25 18:15 UTC NOAA

TAF TAF FNLU 251700Z 2518/2612 23007KT 9999 FEW022
TEMPO 2518/2522 VRB02KT BKN020
BECMG 2603/2607 4000 BR

Example: see airport list